createdAt,value
2022-07-27T00:02:04.314Z,4.63
2022-07-27T00:04:51.128Z,5.03
2022-07-27T00:07:37.868Z,5.15
2022-07-27T00:10:24.516Z,3.97
2022-07-27T00:13:11.162Z,3.92
2022-07-27T00:15:59.394Z,6.05
2022-07-27T00:18:45.828Z,4.97
2022-07-27T00:21:32.388Z,5.13
2022-07-27T00:24:19.056Z,3.95
2022-07-27T00:27:05.493Z,4.97
2022-07-27T00:29:52.308Z,4.78
2022-07-27T00:32:40.569Z,4.07
2022-07-27T00:35:27.724Z,4.55
2022-07-27T00:38:14.472Z,4.63
2022-07-27T00:41:00.999Z,6.70
2022-07-27T00:43:52.613Z,3.78
2022-07-27T00:46:39.653Z,2.90
2022-07-27T00:49:28.505Z,4.60
2022-07-27T00:52:15.661Z,3.45
2022-07-27T00:55:02.548Z,3.83
2022-07-27T00:57:58.352Z,7.72
2022-07-27T01:00:46.843Z,6.72
2022-07-27T01:03:33.732Z,4.53
2022-07-27T01:06:26.842Z,6.28
2022-07-27T01:09:31.792Z,3.28
2022-07-27T01:12:21.584Z,5.03
2022-07-27T01:15:09.077Z,5.55
2022-07-27T01:17:56.034Z,6.03
2022-07-27T01:20:42.940Z,5.35
2022-07-27T01:23:33.289Z,4.88
2022-07-27T01:26:20.205Z,2.65
2022-07-27T01:29:07.195Z,5.15
2022-07-27T01:31:53.922Z,4.57
2022-07-27T01:34:40.706Z,2.78
2022-07-27T01:37:27.257Z,3.92
2022-07-27T01:40:15.731Z,10.07
2022-07-27T01:43:02.456Z,3.53
2022-07-27T01:45:49.184Z,4.25
2022-07-27T01:48:35.737Z,3.58
2022-07-27T01:51:22.335Z,4.15
2022-07-27T01:54:09.373Z,3.45
2022-07-27T01:56:57.538Z,2.88
2022-07-27T01:59:43.985Z,3.72
2022-07-27T02:02:30.789Z,5.97
2022-07-27T02:05:17.656Z,5.70
2022-07-27T02:08:04.634Z,6.97
2022-07-27T02:11:08.506Z,3.35
2022-07-27T02:13:56.505Z,4.50
2022-07-27T02:16:43.120Z,2.08
2022-07-27T02:19:29.977Z,3.17
2022-07-27T02:22:17.081Z,3.35
2022-07-27T02:25:04.437Z,2.00
2022-07-27T02:27:51.308Z,9.20
2022-07-27T02:30:39.292Z,4.22
2022-07-27T02:33:25.801Z,5.90
2022-07-27T02:36:12.762Z,7.18
2022-07-27T02:38:59.785Z,6.65
2022-07-27T02:41:47.640Z,3.42
2022-07-27T02:44:35.082Z,5.93
2022-07-27T02:47:23.403Z,5.32
2022-07-27T02:50:10.797Z,6.35
2022-07-27T02:52:57.653Z,11.23
2022-07-27T02:55:44.474Z,5.18
2022-07-27T02:58:31.269Z,2.88
2022-07-27T03:01:18.001Z,4.82
2022-07-27T03:04:06.527Z,4.97
2022-07-27T03:06:53.200Z,10.35
2022-07-27T03:09:39.766Z,4.82
2022-07-27T03:12:26.681Z,4.40
2022-07-27T03:15:13.485Z,12.13
2022-07-27T03:18:00.136Z,7.10
2022-07-27T03:20:48.153Z,5.10
2022-07-27T03:23:34.926Z,8.70
2022-07-27T03:26:21.759Z,7.78
2022-07-27T03:29:08.895Z,9.98
2022-07-27T03:31:55.818Z,11.45
2022-07-27T03:34:43.948Z,8.85
2022-07-27T03:37:32.369Z,6.07
2022-07-27T03:40:19.261Z,6.70
2022-07-27T03:43:05.840Z,8.48
2022-07-27T03:45:52.326Z,9.88
2022-07-27T03:48:39.664Z,6.93
2022-07-27T03:51:26.925Z,5.78
2022-07-27T03:54:15.252Z,8.52
2022-07-27T03:57:02.184Z,9.73
2022-07-27T03:59:51.506Z,7.32
2022-07-27T04:02:40.784Z,7.22
2022-07-27T04:05:29.404Z,7.45
2022-07-27T04:08:17.544Z,12.77
2022-07-27T04:11:05.395Z,12.98
2022-07-27T04:13:56.120Z,12.30
2022-07-27T04:16:42.702Z,14.77
2022-07-27T04:19:29.353Z,12.57
2022-07-27T04:22:16.146Z,15.43
2022-07-27T04:25:02.936Z,11.85
2022-07-27T04:27:51.053Z,13.07
2022-07-27T04:30:37.660Z,12.30
2022-07-27T04:33:24.227Z,12.85
2022-07-27T04:36:10.962Z,16.02
2022-07-27T04:38:59.775Z,13.68
2022-07-27T04:41:46.985Z,15.63
2022-07-27T04:44:35.190Z,11.15
2022-07-27T04:47:21.752Z,12.80
2022-07-27T04:50:10.065Z,14.10
2022-07-27T04:52:57.877Z,13.45
2022-07-27T04:55:46.852Z,17.38
2022-07-27T04:58:33.506Z,17.02
2022-07-27T05:01:22.963Z,22.27
2022-07-27T05:04:09.881Z,19.90
2022-07-27T05:06:56.284Z,21.52
2022-07-27T05:09:43.365Z,25.55
2022-07-27T05:12:30.198Z,25.98
2022-07-27T05:15:17.538Z,21.08
2022-07-27T05:18:05.601Z,22.73
2022-07-27T05:20:52.384Z,29.13
2022-07-27T05:23:39.164Z,27.30
2022-07-27T05:26:26.269Z,25.08
2022-07-27T05:29:13.573Z,26.80
2022-07-27T05:32:00.579Z,28.80
2022-07-27T05:34:48.503Z,29.08
2022-07-27T05:37:35.397Z,26.83
2022-07-27T05:40:22.091Z,27.88
2022-07-27T05:43:08.603Z,33.83
2022-07-27T05:45:55.891Z,32.08
2022-07-27T05:48:42.349Z,33.00
2022-07-27T05:51:31.525Z,27.70
2022-07-27T05:54:19.459Z,31.45
2022-07-27T05:57:06.315Z,30.67
2022-07-27T05:59:54.501Z,23.95
2022-07-27T06:02:41.656Z,27.58
2022-07-27T06:05:28.333Z,30.52
2022-07-27T06:08:15.515Z,27.55
2022-07-27T06:11:02.012Z,26.80
2022-07-27T06:13:50.603Z,23.25
2022-07-27T06:16:37.636Z,27.38
2022-07-27T06:19:24.408Z,27.17
2022-07-27T06:22:22.838Z,22.17
2022-07-27T06:25:11.121Z,23.85
2022-07-27T06:27:57.691Z,23.00
2022-07-27T06:30:44.305Z,21.40
2022-07-27T06:33:31.674Z,21.58
2022-07-27T06:36:18.177Z,23.80
2022-07-27T06:39:04.908Z,25.15
2022-07-27T06:41:57.920Z,20.92
2022-07-27T06:44:45.227Z,19.63
2022-07-27T06:47:31.775Z,27.70
2022-07-27T06:50:22.166Z,22.63
2022-07-27T06:53:08.893Z,20.35
2022-07-27T06:55:55.817Z,17.85
2022-07-27T06:58:43.657Z,20.13
2022-07-27T07:01:30.508Z,19.23
2022-07-27T07:04:17.743Z,14.32
2022-07-27T07:07:10.472Z,15.15
2022-07-27T07:09:57.013Z,18.83
2022-07-27T07:12:43.953Z,14.60
2022-07-27T07:15:34.212Z,9.73
2022-07-27T07:18:20.904Z,9.18
2022-07-27T07:21:08.102Z,11.80
2022-07-27T07:23:54.586Z,14.98
2022-07-27T07:26:41.190Z,12.07
2022-07-27T07:29:28.013Z,10.00
2022-07-27T07:32:16.261Z,14.38
2022-07-27T07:35:03.977Z,12.57
2022-07-27T07:37:50.932Z,21.27
2022-07-27T07:40:45.320Z,12.43
2022-07-27T07:43:32.077Z,13.45
2022-07-27T07:46:19.125Z,13.38
2022-07-27T07:49:07.236Z,14.68
2022-07-27T07:51:53.832Z,10.95
2022-07-27T07:54:40.540Z,11.50
2022-07-27T07:57:28.030Z,11.43
2022-07-27T08:00:15.606Z,9.68
2022-07-27T08:03:02.419Z,17.08
2022-07-27T08:05:50.927Z,11.38
2022-07-27T08:08:37.862Z,10.57
2022-07-27T08:11:24.381Z,11.18
2022-07-27T08:14:11.267Z,11.35
2022-07-27T08:16:57.842Z,11.73
2022-07-27T08:19:44.550Z,9.55
2022-07-27T08:22:32.521Z,9.07
2022-07-27T08:25:20.338Z,10.18
2022-07-27T08:28:07.596Z,7.25
2022-07-27T08:30:57.340Z,8.23
2022-07-27T08:33:44.104Z,9.07
2022-07-27T08:36:30.942Z,11.52
2022-07-27T08:39:52.967Z,9.10
2022-07-27T08:42:25.795Z,8.00
2022-07-27T08:45:16.053Z,11.18
2022-07-27T08:48:03.134Z,9.93
2022-07-27T08:50:50.352Z,9.23
2022-07-27T08:53:53.023Z,8.85
2022-07-27T08:56:41.873Z,10.93
2022-07-27T08:59:29.574Z,8.65
2022-07-27T09:02:16.694Z,7.20
2022-07-27T09:05:05.627Z,6.43
2022-07-27T09:07:52.989Z,7.68
2022-07-27T09:10:40.281Z,13.20
2022-07-27T09:13:30.068Z,12.27
2022-07-27T09:16:19.062Z,7.38
2022-07-27T09:19:08.216Z,9.52
2022-07-27T09:21:56.979Z,10.40
2022-07-27T09:25:02.884Z,11.75
2022-07-27T09:27:54.065Z,8.93
2022-07-27T09:30:44.242Z,10.27
2022-07-27T09:33:32.825Z,11.20
2022-07-27T09:36:22.819Z,9.18
2022-07-27T09:39:09.292Z,10.70
2022-07-27T09:41:57.678Z,7.13
2022-07-27T09:44:53.168Z,10.05
2022-07-27T09:47:42.028Z,10.60
2022-07-27T09:50:32.393Z,8.88
2022-07-27T09:53:42.533Z,10.15
2022-07-27T09:56:31.695Z,12.30
2022-07-27T09:59:20.296Z,9.80
2022-07-27T10:02:07.252Z,8.43
2022-07-27T10:04:56.506Z,13.27
2022-07-27T10:07:43.602Z,8.65
2022-07-27T10:10:30.623Z,9.88
2022-07-27T10:13:17.077Z,9.55
2022-07-27T10:16:05.760Z,9.18
2022-07-27T10:19:01.166Z,9.43
2022-07-27T10:21:50.897Z,7.60
2022-07-27T10:24:37.634Z,10.30
2022-07-27T10:27:28.986Z,10.27
2022-07-27T10:30:17.042Z,26.30
2022-07-27T10:33:15.790Z,10.25
2022-07-27T10:36:04.175Z,5.95
2022-07-27T10:38:56.430Z,8.50
2022-07-27T10:41:43.804Z,9.55
2022-07-27T10:44:31.418Z,7.32
2022-07-27T10:47:30.121Z,7.38
2022-07-27T10:50:32.310Z,6.57
2022-07-27T10:53:55.116Z,8.38
2022-07-27T10:56:49.711Z,10.05
2022-07-27T11:00:10.170Z,11.20
2022-07-27T11:02:59.517Z,8.07
2022-07-27T11:06:01.991Z,8.57
2022-07-27T11:09:53.141Z,6.43
2022-07-27T11:12:11.552Z,7.90
2022-07-27T11:14:59.681Z,6.43
2022-07-27T11:17:59.381Z,6.07
2022-07-27T11:20:50.221Z,12.55
2022-07-27T11:23:52.410Z,7.10
2022-07-27T11:26:41.620Z,7.43
2022-07-27T11:29:33.873Z,8.10
2022-07-27T11:32:36.508Z,6.63
2022-07-27T11:35:26.052Z,5.78
2022-07-27T11:38:12.614Z,6.38
2022-07-27T11:41:12.785Z,6.43
2022-07-27T11:44:07.929Z,6.70
2022-07-27T11:47:01.733Z,10.60
2022-07-27T11:49:48.898Z,6.90
2022-07-27T11:52:35.537Z,5.88
2022-07-27T11:55:22.103Z,5.82
2022-07-27T11:58:09.021Z,6.45
2022-07-27T12:00:55.969Z,5.30
2022-07-27T12:03:47.236Z,5.50
2022-07-27T12:06:38.884Z,4.63
2022-07-27T12:09:26.544Z,6.00
2022-07-27T12:12:20.127Z,8.75
2022-07-27T12:18:24.761Z,3.88
2022-07-27T12:21:18.836Z,5.00
2022-07-27T12:24:06.022Z,7.05
2022-07-27T12:27:07.100Z,4.28
2022-07-27T12:29:59.265Z,4.53
2022-07-27T12:32:46.520Z,5.00
2022-07-27T12:35:38.812Z,6.53
2022-07-27T12:38:38.567Z,3.80
2022-07-27T12:41:26.562Z,5.75
2022-07-27T12:44:15.654Z,4.68
2022-07-27T12:47:27.811Z,4.47
2022-07-27T12:50:16.887Z,6.00
2022-07-27T12:53:03.868Z,6.65
2022-07-27T12:55:51.892Z,6.20
2022-07-27T12:58:57.897Z,7.78
2022-07-27T13:01:44.820Z,6.75
2022-07-27T13:04:31.655Z,5.85
2022-07-27T13:07:19.591Z,7.47
2022-07-27T13:10:08.103Z,7.28
2022-07-27T13:12:56.504Z,7.70
2022-07-27T13:15:43.190Z,6.75
2022-07-27T13:18:29.855Z,10.23
2022-07-27T13:21:16.336Z,7.30
2022-07-27T13:24:03.253Z,10.70
2022-07-27T13:26:50.369Z,7.03
2022-07-27T13:29:38.558Z,7.63
2022-07-27T13:32:26.350Z,6.35
2022-07-27T13:35:13.534Z,5.75
2022-07-27T13:38:03.336Z,5.93
2022-07-27T13:40:50.174Z,5.72
2022-07-27T13:43:36.937Z,7.13
2022-07-27T13:46:25.220Z,8.82
2022-07-27T13:49:12.670Z,24.85
2022-07-27T13:52:01.848Z,11.48
2022-07-27T13:54:48.444Z,8.32
2022-07-27T13:57:35.500Z,9.65
2022-07-27T14:00:22.382Z,9.90
2022-07-27T14:03:11.465Z,5.93
2022-07-27T14:05:58.271Z,8.88
2022-07-27T14:08:46.979Z,7.40
2022-07-27T14:11:34.357Z,5.55
2022-07-27T14:14:21.772Z,9.90
2022-07-27T14:17:13.904Z,7.00
2022-07-27T14:20:02.125Z,6.38
2022-07-27T14:22:50.305Z,9.82
2022-07-27T14:25:36.768Z,7.10
2022-07-27T14:28:24.372Z,11.45
2022-07-27T14:31:13.100Z,10.05
2022-07-27T14:33:59.514Z,6.43
2022-07-27T14:36:47.656Z,6.53
2022-07-27T14:39:34.248Z,7.53
2022-07-27T14:42:23.652Z,8.65
2022-07-27T14:45:11.611Z,8.10
2022-07-27T14:47:58.428Z,11.95
2022-07-27T14:50:45.543Z,10.30
2022-07-27T14:53:33.676Z,6.90
2022-07-27T14:56:20.544Z,7.03
2022-07-27T14:59:07.033Z,5.43
2022-07-27T15:01:54.227Z,6.50
2022-07-27T15:04:41.076Z,8.80
2022-07-27T15:07:27.577Z,4.63
2022-07-27T15:10:15.625Z,6.93
2022-07-27T15:13:03.972Z,4.93
2022-07-27T15:15:52.724Z,17.20
2022-07-27T15:18:39.764Z,5.85
2022-07-27T15:21:26.774Z,9.75
2022-07-27T15:24:14.533Z,7.25
2022-07-27T15:27:02.653Z,4.50
2022-07-27T15:29:49.760Z,4.68
2022-07-27T15:32:36.473Z,7.88
2022-07-27T15:35:23.355Z,4.10
2022-07-27T15:38:10.049Z,4.45
2022-07-27T15:40:56.802Z,5.18
2022-07-27T15:43:48.623Z,4.47
2022-07-27T15:46:35.540Z,5.50
2022-07-27T15:49:22.200Z,5.55
2022-07-27T15:52:09.221Z,6.32
2022-07-27T15:54:55.946Z,6.72
2022-07-27T15:57:43.045Z,7.63
2022-07-27T16:00:35.530Z,5.57
2022-07-27T16:03:26.926Z,3.58
2022-07-27T16:06:15.829Z,5.57
2022-07-27T16:09:02.576Z,4.68
2022-07-27T16:11:49.395Z,8.80
2022-07-27T16:14:35.970Z,5.78
2022-07-27T16:17:24.268Z,5.82
2022-07-27T16:20:11.534Z,4.30
2022-07-27T16:22:58.087Z,5.57
2022-07-27T16:26:02.715Z,3.80
2022-07-27T16:28:53.205Z,5.88
2022-07-27T16:31:39.934Z,5.82
2022-07-27T16:34:29.451Z,9.40
2022-07-27T16:37:16.109Z,7.43
2022-07-27T16:40:02.853Z,7.68
2022-07-27T16:42:49.412Z,8.00
2022-07-27T16:45:35.947Z,6.22
2022-07-27T16:48:22.895Z,6.65
2022-07-27T16:51:11.820Z,5.13
2022-07-27T16:53:58.222Z,5.88
2022-07-27T16:56:44.755Z,6.47
2022-07-27T16:59:31.468Z,4.22
2022-07-27T17:02:18.802Z,8.48
2022-07-27T17:05:06.627Z,5.93
2022-07-27T17:07:55.061Z,6.05
2022-07-27T17:10:42.116Z,5.13
2022-07-27T17:13:33.679Z,5.22
2022-07-27T17:16:21.221Z,4.45
2022-07-27T17:19:07.874Z,6.68
2022-07-27T17:21:54.580Z,7.55
2022-07-27T17:24:42.549Z,7.07
2022-07-27T17:27:31.408Z,6.15
2022-07-27T17:30:18.493Z,5.05
2022-07-27T17:33:05.382Z,4.70
2022-07-27T17:35:51.975Z,5.45
2022-07-27T17:38:42.150Z,7.78
2022-07-27T17:41:31.853Z,6.53
2022-07-27T17:44:18.509Z,5.43
2022-07-27T17:47:05.644Z,4.45
2022-07-27T17:49:52.309Z,5.05
2022-07-27T17:52:40.698Z,5.68
2022-07-27T17:55:27.281Z,4.18
2022-07-27T17:58:17.005Z,2.88
2022-07-27T18:01:04.042Z,5.38
2022-07-27T18:03:50.919Z,4.00
2022-07-27T18:06:37.670Z,3.38
2022-07-27T18:09:24.369Z,4.15
2022-07-27T18:12:11.178Z,6.97
2022-07-27T18:15:16.794Z,7.88
2022-07-27T18:18:04.365Z,4.85
2022-07-27T18:20:53.027Z,1.58
2022-07-27T18:23:40.669Z,4.13
2022-07-27T18:26:27.251Z,2.95
2022-07-27T18:29:16.073Z,11.57
2022-07-27T18:32:04.472Z,2.08
2022-07-27T18:34:51.040Z,3.03
2022-07-27T18:37:37.857Z,3.70
2022-07-27T18:40:24.725Z,4.95
2022-07-27T18:43:11.406Z,4.57
2022-07-27T18:45:58.150Z,1.67
2022-07-27T18:48:47.055Z,1.83
2022-07-27T18:51:37.176Z,3.25
2022-07-27T18:54:24.280Z,3.60
2022-07-27T18:57:11.224Z,2.17
2022-07-27T18:59:58.053Z,5.32
2022-07-27T19:02:44.964Z,1.48
2022-07-27T19:05:41.642Z,2.75
2022-07-27T19:08:28.621Z,2.53
2022-07-27T19:11:15.717Z,1.85
2022-07-27T19:14:04.799Z,2.65
2022-07-27T19:16:51.830Z,1.50
2022-07-27T19:19:38.295Z,4.32
2022-07-27T19:22:27.288Z,2.60
2022-07-27T19:25:16.741Z,3.08
2022-07-27T19:28:03.960Z,1.90
2022-07-27T19:30:51.022Z,3.47
2022-07-27T19:33:37.926Z,2.80
2022-07-27T19:36:24.806Z,1.40
2022-07-27T19:39:17.334Z,5.57
2022-07-27T19:42:04.595Z,2.30
2022-07-27T19:44:51.467Z,3.30
2022-07-27T19:47:38.222Z,3.42
2022-07-27T19:50:24.968Z,1.90
2022-07-27T19:53:11.508Z,3.17
2022-07-27T19:56:00.279Z,1.63
2022-07-27T19:58:46.913Z,1.27
2022-07-27T20:01:34.234Z,3.90
2022-07-27T20:04:20.681Z,5.13
2022-07-27T20:07:09.888Z,1.70
2022-07-27T20:09:56.901Z,3.97
2022-07-27T20:12:44.951Z,3.10
2022-07-27T20:15:32.215Z,3.65
2022-07-27T20:18:21.816Z,1.77
2022-07-27T20:21:20.171Z,1.65
2022-07-27T20:24:10.119Z,2.88
2022-07-27T20:26:57.688Z,1.45
2022-07-27T20:29:45.655Z,1.27
2022-07-27T20:32:32.182Z,2.83
2022-07-27T20:35:19.245Z,1.55
2022-07-27T20:38:05.822Z,2.10
2022-07-27T20:40:53.877Z,2.85
2022-07-27T20:43:40.545Z,1.70
2022-07-27T20:46:28.939Z,2.97
2022-07-27T20:49:16.884Z,2.42
2022-07-27T20:52:04.331Z,3.50
2022-07-27T20:54:52.684Z,2.58
2022-07-27T20:57:39.532Z,3.00
2022-07-27T21:00:29.217Z,2.00
2022-07-27T21:03:17.925Z,1.38
2022-07-27T21:06:04.566Z,4.32
2022-07-27T21:08:51.204Z,2.38
2022-07-27T21:11:39.244Z,2.45
2022-07-27T21:14:25.692Z,3.22
2022-07-27T21:17:12.432Z,2.95
2022-07-27T21:20:00.542Z,2.83
2022-07-27T21:23:07.088Z,2.72
2022-07-27T21:25:53.566Z,2.35
2022-07-27T21:28:40.323Z,1.75
2022-07-27T21:31:29.856Z,1.50
2022-07-27T21:34:18.602Z,2.10
2022-07-27T21:37:06.505Z,2.63
2022-07-27T21:39:52.940Z,2.50
2022-07-27T21:42:39.482Z,2.70
2022-07-27T21:45:26.494Z,4.30
2022-07-27T21:48:13.088Z,3.25
2022-07-27T21:51:00.093Z,1.73
2022-07-27T21:53:48.715Z,2.63
2022-07-27T21:56:41.858Z,3.95
2022-07-27T21:59:29.735Z,3.53
2022-07-27T22:02:16.512Z,3.58
2022-07-27T22:05:03.509Z,2.67
2022-07-27T22:07:50.182Z,4.20
2022-07-27T22:10:38.730Z,2.35
2022-07-27T22:13:25.153Z,2.22
2022-07-27T22:16:13.461Z,2.35
2022-07-27T22:19:00.168Z,2.83
2022-07-27T22:21:48.691Z,3.67
2022-07-27T22:24:35.518Z,1.77
2022-07-27T22:27:23.649Z,9.23
2022-07-27T22:30:10.818Z,2.22
2022-07-27T22:32:57.696Z,1.65
2022-07-27T22:35:44.370Z,2.50
2022-07-27T22:38:31.067Z,1.83
2022-07-27T22:41:17.670Z,1.70
2022-07-27T22:44:05.996Z,1.17
2022-07-27T22:46:52.942Z,2.30
2022-07-27T22:49:39.872Z,1.75
2022-07-27T22:52:26.797Z,2.60
2022-07-27T22:55:13.515Z,3.40
2022-07-27T22:58:00.277Z,1.70
2022-07-27T23:00:48.933Z,2.30
2022-07-27T23:03:35.633Z,1.63
2022-07-27T23:06:22.235Z,2.90
2022-07-27T23:09:09.633Z,8.00
2022-07-27T23:11:56.297Z,3.28
2022-07-27T23:14:43.116Z,1.67
2022-07-27T23:17:37.237Z,2.17
2022-07-27T23:20:23.970Z,2.25
2022-07-27T23:23:16.670Z,3.47
2022-07-27T23:26:03.685Z,2.08
2022-07-27T23:28:50.490Z,4.10
2022-07-27T23:31:37.139Z,2.47
2022-07-27T23:34:28.960Z,1.70
2022-07-27T23:37:15.589Z,0.95
2022-07-27T23:40:03.512Z,3.08
2022-07-27T23:42:50.164Z,3.30
2022-07-27T23:45:37.042Z,3.80
2022-07-27T23:48:25.173Z,3.03
2022-07-27T23:51:18.732Z,1.98
2022-07-27T23:54:05.500Z,1.17
2022-07-27T23:56:52.093Z,1.25
2022-07-27T23:59:38.739Z,3.30
